sensor_id;sensor_type;location;lat;lon;timestamp;P1;durP1;ratioP1;P2;durP2;ratioP2
60006;SDS011;45863;50.336;3.536;2022-11-02T00:01:21;10.90;;;2.33;;
60006;SDS011;45863;50.336;3.536;2022-11-02T00:03:47;10.52;;;3.15;;
60006;SDS011;45863;50.336;3.536;2022-11-02T00:06:13;11.57;;;3.13;;
60006;SDS011;45863;50.336;3.536;2022-11-02T00:08:38;13.38;;;2.25;;
60006;SDS011;45863;50.336;3.536;2022-11-02T00:11:03;11.27;;;2.80;;
60006;SDS011;45863;50.336;3.536;2022-11-02T00:13:28;11.65;;;2.20;;
60006;SDS011;45863;50.336;3.536;2022-11-02T00:15:54;10.10;;;2.35;;
60006;SDS011;45863;50.336;3.536;2022-11-02T00:18:19;10.32;;;2.10;;
60006;SDS011;45863;50.336;3.536;2022-11-02T00:20:44;11.25;;;2.40;;
60006;SDS011;45863;50.336;3.536;2022-11-02T00:23:10;10.85;;;2.53;;
60006;SDS011;45863;50.336;3.536;2022-11-02T00:25:46;9.80;;;2.22;;
60006;SDS011;45863;50.336;3.536;2022-11-02T00:28:12;10.93;;;2.08;;
60006;SDS011;45863;50.336;3.536;2022-11-02T00:30:38;9.85;;;2.10;;
60006;SDS011;45863;50.336;3.536;2022-11-02T00:33:04;12.10;;;2.30;;
60006;SDS011;45863;50.336;3.536;2022-11-02T00:35:29;15.47;;;2.73;;
60006;SDS011;45863;50.336;3.536;2022-11-02T00:37:54;10.25;;;2.33;;
60006;SDS011;45863;50.336;3.536;2022-11-02T00:40:19;10.37;;;2.77;;
60006;SDS011;45863;50.336;3.536;2022-11-02T00:42:45;14.02;;;2.60;;
60006;SDS011;45863;50.336;3.536;2022-11-02T00:45:10;10.77;;;2.47;;
60006;SDS011;45863;50.336;3.536;2022-11-02T00:47:35;10.50;;;2.20;;
60006;SDS011;45863;50.336;3.536;2022-11-02T00:50:01;13.02;;;2.65;;
60006;SDS011;45863;50.336;3.536;2022-11-02T00:52:26;15.32;;;2.40;;
60006;SDS011;45863;50.336;3.536;2022-11-02T00:54:51;13.45;;;2.75;;
60006;SDS011;45863;50.336;3.536;2022-11-02T00:57:16;13.55;;;2.33;;
60006;SDS011;45863;50.336;3.536;2022-11-02T00:59:42;13.80;;;2.30;;
60006;SDS011;45863;50.336;3.536;2022-11-02T01:02:07;10.98;;;2.47;;
60006;SDS011;45863;50.336;3.536;2022-11-02T01:04:32;11.50;;;2.20;;
60006;SDS011;45863;50.336;3.536;2022-11-02T01:06:57;16.05;;;2.53;;
60006;SDS011;45863;50.336;3.536;2022-11-02T01:09:23;14.82;;;2.28;;
60006;SDS011;45863;50.336;3.536;2022-11-02T01:11:48;13.50;;;2.60;;
60006;SDS011;45863;50.336;3.536;2022-11-02T01:14:13;13.43;;;2.28;;
60006;SDS011;45863;50.336;3.536;2022-11-02T01:16:39;13.97;;;2.90;;
60006;SDS011;45863;50.336;3.536;2022-11-02T01:19:05;15.57;;;3.33;;
60006;SDS011;45863;50.336;3.536;2022-11-02T01:21:30;12.27;;;2.58;;
60006;SDS011;45863;50.336;3.536;2022-11-02T01:23:56;12.50;;;2.50;;
60006;SDS011;45863;50.336;3.536;2022-11-02T01:26:21;14.73;;;2.85;;
60006;SDS011;45863;50.336;3.536;2022-11-02T01:28:46;12.85;;;3.13;;
60006;SDS011;45863;50.336;3.536;2022-11-02T01:31:11;16.27;;;3.20;;
60006;SDS011;45863;50.336;3.536;2022-11-02T01:33:37;17.90;;;3.58;;
60006;SDS011;45863;50.336;3.536;2022-11-02T01:36:03;15.93;;;2.70;;
60006;SDS011;45863;50.336;3.536;2022-11-02T01:38:29;16.27;;;2.40;;
60006;SDS011;45863;50.336;3.536;2022-11-02T01:40:54;13.77;;;2.58;;
60006;SDS011;45863;50.336;3.536;2022-11-02T01:43:20;14.77;;;2.50;;
60006;SDS011;45863;50.336;3.536;2022-11-02T01:45:46;19.10;;;3.13;;
60006;SDS011;45863;50.336;3.536;2022-11-02T01:48:11;13.90;;;2.45;;
60006;SDS011;45863;50.336;3.536;2022-11-02T01:50:37;13.05;;;3.28;;
60006;SDS011;45863;50.336;3.536;2022-11-02T01:53:02;16.98;;;3.05;;
60006;SDS011;45863;50.336;3.536;2022-11-02T01:55:28;13.60;;;2.20;;
60006;SDS011;45863;50.336;3.536;2022-11-02T01:57:56;14.88;;;3.35;;
60006;SDS011;45863;50.336;3.536;2022-11-02T02:00:23;14.68;;;2.92;;
60006;SDS011;45863;50.336;3.536;2022-11-02T02:02:50;17.35;;;2.30;;
60006;SDS011;45863;50.336;3.536;2022-11-02T02:05:16;18.58;;;2.95;;
60006;SDS011;45863;50.336;3.536;2022-11-02T02:07:42;13.82;;;2.42;;
60006;SDS011;45863;50.336;3.536;2022-11-02T02:10:08;18.45;;;2.78;;
60006;SDS011;45863;50.336;3.536;2022-11-02T02:12:33;13.15;;;2.42;;
60006;SDS011;45863;50.336;3.536;2022-11-02T02:15:00;17.80;;;3.00;;
60006;SDS011;45863;50.336;3.536;2022-11-02T02:17:27;13.50;;;2.95;;
60006;SDS011;45863;50.336;3.536;2022-11-02T02:19:59;12.13;;;2.55;;
60006;SDS011;45863;50.336;3.536;2022-11-02T02:25:15;11.95;;;2.33;;
60006;SDS011;45863;50.336;3.536;2022-11-02T02:30:16;17.42;;;3.08;;
60006;SDS011;45863;50.336;3.536;2022-11-02T02:33:00;15.20;;;2.40;;
60006;SDS011;45863;50.336;3.536;2022-11-02T02:35:31;16.25;;;3.03;;
60006;SDS011;45863;50.336;3.536;2022-11-02T02:37:59;14.37;;;3.33;;
60006;SDS011;45863;50.336;3.536;2022-11-02T02:42:55;17.15;;;2.60;;
60006;SDS011;45863;50.336;3.536;2022-11-02T02:46:05;21.17;;;3.42;;
60006;SDS011;45863;50.336;3.536;2022-11-02T02:48:12;12.40;;;2.80;;
60006;SDS011;45863;50.336;3.536;2022-11-02T02:50:48;16.77;;;3.03;;
60006;SDS011;45863;50.336;3.536;2022-11-02T02:53:14;13.77;;;3.00;;
60006;SDS011;45863;50.336;3.536;2022-11-02T02:55:42;19.55;;;3.38;;
60006;SDS011;45863;50.336;3.536;2022-11-02T02:58:09;17.15;;;2.83;;
60006;SDS011;45863;50.336;3.536;2022-11-02T03:00:36;25.35;;;3.53;;
60006;SDS011;45863;50.336;3.536;2022-11-02T03:03:02;16.25;;;2.80;;
60006;SDS011;45863;50.336;3.536;2022-11-02T03:05:32;20.45;;;3.38;;
60006;SDS011;45863;50.336;3.536;2022-11-02T03:08:00;14.90;;;2.58;;
60006;SDS011;45863;50.336;3.536;2022-11-02T03:21:04;16.95;;;3.10;;
60006;SDS011;45863;50.336;3.536;2022-11-02T03:28:37;12.93;;;2.87;;
60006;SDS011;45863;50.336;3.536;2022-11-02T03:31:12;15.93;;;3.03;;
60006;SDS011;45863;50.336;3.536;2022-11-02T03:33:45;22.23;;;3.92;;
60006;SDS011;45863;50.336;3.536;2022-11-02T03:36:14;23.67;;;3.00;;
60006;SDS011;45863;50.336;3.536;2022-11-02T03:41:35;19.05;;;3.33;;
60006;SDS011;45863;50.336;3.536;2022-11-02T03:44:12;17.75;;;3.00;;
60006;SDS011;45863;50.336;3.536;2022-11-02T03:46:39;26.85;;;3.17;;
60006;SDS011;45863;50.336;3.536;2022-11-02T03:49:05;21.38;;;3.85;;
60006;SDS011;45863;50.336;3.536;2022-11-02T03:51:31;18.25;;;2.72;;
60006;SDS011;45863;50.336;3.536;2022-11-02T03:54:00;18.73;;;3.17;;
60006;SDS011;45863;50.336;3.536;2022-11-02T03:59:31;17.55;;;3.85;;
60006;SDS011;45863;50.336;3.536;2022-11-02T04:01:56;18.83;;;3.15;;
60006;SDS011;45863;50.336;3.536;2022-11-02T04:04:22;27.25;;;4.20;;
60006;SDS011;45863;50.336;3.536;2022-11-02T04:06:47;15.50;;;2.93;;
60006;SDS011;45863;50.336;3.536;2022-11-02T04:09:13;18.17;;;4.22;;
60006;SDS011;45863;50.336;3.536;2022-11-02T04:11:38;26.17;;;4.63;;
60006;SDS011;45863;50.336;3.536;2022-11-02T04:14:39;24.27;;;3.72;;
60006;SDS011;45863;50.336;3.536;2022-11-02T04:17:06;19.27;;;3.80;;
60006;SDS011;45863;50.336;3.536;2022-11-02T04:19:50;23.52;;;3.72;;
60006;SDS011;45863;50.336;3.536;2022-11-02T04:22:15;25.42;;;3.90;;
60006;SDS011;45863;50.336;3.536;2022-11-02T04:25:00;21.73;;;4.30;;
60006;SDS011;45863;50.336;3.536;2022-11-02T04:27:42;21.63;;;3.25;;
60006;SDS011;45863;50.336;3.536;2022-11-02T04:30:08;22.60;;;3.72;;
60006;SDS011;45863;50.336;3.536;2022-11-02T04:32:37;29.08;;;4.57;;
60006;SDS011;45863;50.336;3.536;2022-11-02T04:35:20;21.10;;;3.50;;
60006;SDS011;45863;50.336;3.536;2022-11-02T04:37:46;13.20;;;2.45;;
60006;SDS011;45863;50.336;3.536;2022-11-02T04:40:29;18.50;;;3.42;;
60006;SDS011;45863;50.336;3.536;2022-11-02T04:42:55;21.07;;;4.33;;
60006;SDS011;45863;50.336;3.536;2022-11-02T04:45:20;20.67;;;3.45;;
60006;SDS011;45863;50.336;3.536;2022-11-02T04:47:45;17.17;;;3.20;;
60006;SDS011;45863;50.336;3.536;2022-11-02T04:50:10;19.13;;;3.80;;
60006;SDS011;45863;50.336;3.536;2022-11-02T04:52:36;24.52;;;3.42;;
60006;SDS011;45863;50.336;3.536;2022-11-02T04:55:02;20.42;;;3.35;;
60006;SDS011;45863;50.336;3.536;2022-11-02T04:57:27;26.08;;;3.60;;
60006;SDS011;45863;50.336;3.536;2022-11-02T04:59:52;26.40;;;3.85;;
60006;SDS011;45863;50.336;3.536;2022-11-02T05:02:17;26.48;;;3.95;;
60006;SDS011;45863;50.336;3.536;2022-11-02T05:04:43;22.35;;;3.47;;
60006;SDS011;45863;50.336;3.536;2022-11-02T05:07:09;20.37;;;3.13;;
60006;SDS011;45863;50.336;3.536;2022-11-02T05:09:34;21.20;;;3.17;;
60006;SDS011;45863;50.336;3.536;2022-11-02T05:12:00;20.20;;;4.47;;
60006;SDS011;45863;50.336;3.536;2022-11-02T05:14:25;23.02;;;4.03;;
60006;SDS011;45863;50.336;3.536;2022-11-02T05:16:51;28.65;;;3.45;;
60006;SDS011;45863;50.336;3.536;2022-11-02T05:19:16;24.83;;;3.90;;
60006;SDS011;45863;50.336;3.536;2022-11-02T05:21:41;28.03;;;3.63;;
60006;SDS011;45863;50.336;3.536;2022-11-02T05:24:06;21.48;;;3.13;;
60006;SDS011;45863;50.336;3.536;2022-11-02T05:26:31;20.48;;;3.60;;
60006;SDS011;45863;50.336;3.536;2022-11-02T05:28:57;24.90;;;3.85;;
60006;SDS011;45863;50.336;3.536;2022-11-02T05:31:22;18.23;;;3.75;;
60006;SDS011;45863;50.336;3.536;2022-11-02T05:33:48;15.50;;;3.37;;
60006;SDS011;45863;50.336;3.536;2022-11-02T05:36:13;30.17;;;4.05;;
60006;SDS011;45863;50.336;3.536;2022-11-02T05:38:38;20.87;;;3.67;;
60006;SDS011;45863;50.336;3.536;2022-11-02T05:41:03;20.97;;;4.00;;
60006;SDS011;45863;50.336;3.536;2022-11-02T05:43:29;18.35;;;3.40;;
60006;SDS011;45863;50.336;3.536;2022-11-02T05:45:55;22.02;;;3.45;;
60006;SDS011;45863;50.336;3.536;2022-11-02T05:48:21;23.60;;;4.07;;
60006;SDS011;45863;50.336;3.536;2022-11-02T05:50:46;19.17;;;3.70;;
60006;SDS011;45863;50.336;3.536;2022-11-02T05:53:11;25.85;;;3.83;;
60006;SDS011;45863;50.336;3.536;2022-11-02T05:55:36;32.90;;;4.00;;
60006;SDS011;45863;50.336;3.536;2022-11-02T05:58:02;23.35;;;3.67;;
60006;SDS011;45863;50.336;3.536;2022-11-02T06:00:27;25.45;;;4.13;;
60006;SDS011;45863;50.336;3.536;2022-11-02T06:02:56;18.90;;;4.53;;
60006;SDS011;45863;50.336;3.536;2022-11-02T06:05:22;22.65;;;3.67;;
60006;SDS011;45863;50.336;3.536;2022-11-02T06:07:47;25.65;;;4.10;;
60006;SDS011;45863;50.336;3.536;2022-11-02T06:10:12;18.88;;;3.65;;
60006;SDS011;45863;50.336;3.536;2022-11-02T06:12:37;27.80;;;4.18;;
60006;SDS011;45863;50.336;3.536;2022-11-02T06:15:03;21.47;;;4.00;;
60006;SDS011;45863;50.336;3.536;2022-11-02T06:17:34;20.13;;;3.53;;
60006;SDS011;45863;50.336;3.536;2022-11-02T06:20:00;26.08;;;3.85;;
60006;SDS011;45863;50.336;3.536;2022-11-02T06:22:25;25.73;;;3.40;;
60006;SDS011;45863;50.336;3.536;2022-11-02T06:24:50;28.67;;;4.43;;
60006;SDS011;45863;50.336;3.536;2022-11-02T06:27:15;28.57;;;4.70;;
60006;SDS011;45863;50.336;3.536;2022-11-02T06:29:40;23.17;;;3.90;;
60006;SDS011;45863;50.336;3.536;2022-11-02T06:32:06;26.47;;;4.43;;
60006;SDS011;45863;50.336;3.536;2022-11-02T06:34:31;20.40;;;3.55;;
60006;SDS011;45863;50.336;3.536;2022-11-02T06:36:56;24.83;;;4.03;;
60006;SDS011;45863;50.336;3.536;2022-11-02T06:39:21;21.30;;;3.97;;
60006;SDS011;45863;50.336;3.536;2022-11-02T06:41:46;24.42;;;4.75;;
60006;SDS011;45863;50.336;3.536;2022-11-02T06:44:12;31.43;;;4.67;;
60006;SDS011;45863;50.336;3.536;2022-11-02T06:46:37;33.30;;;3.93;;
60006;SDS011;45863;50.336;3.536;2022-11-02T06:49:02;32.20;;;5.13;;
60006;SDS011;45863;50.336;3.536;2022-11-02T06:51:27;23.52;;;5.10;;
60006;SDS011;45863;50.336;3.536;2022-11-02T06:53:52;28.03;;;4.23;;
60006;SDS011;45863;50.336;3.536;2022-11-02T06:56:18;27.67;;;3.70;;
60006;SDS011;45863;50.336;3.536;2022-11-02T06:58:43;28.13;;;3.93;;
60006;SDS011;45863;50.336;3.536;2022-11-02T07:01:08;24.00;;;4.40;;
60006;SDS011;45863;50.336;3.536;2022-11-02T07:03:33;23.67;;;3.72;;
60006;SDS011;45863;50.336;3.536;2022-11-02T07:05:59;27.30;;;4.35;;
60006;SDS011;45863;50.336;3.536;2022-11-02T07:08:24;26.25;;;4.03;;
60006;SDS011;45863;50.336;3.536;2022-11-02T07:10:51;22.15;;;4.20;;
60006;SDS011;45863;50.336;3.536;2022-11-02T07:13:16;26.52;;;4.63;;
60006;SDS011;45863;50.336;3.536;2022-11-02T07:15:42;29.38;;;4.20;;
60006;SDS011;45863;50.336;3.536;2022-11-02T07:18:07;25.88;;;4.60;;
60006;SDS011;45863;50.336;3.536;2022-11-02T07:20:32;29.60;;;4.45;;
60006;SDS011;45863;50.336;3.536;2022-11-02T07:22:58;22.27;;;4.10;;
60006;SDS011;45863;50.336;3.536;2022-11-02T07:25:24;21.30;;;3.95;;
60006;SDS011;45863;50.336;3.536;2022-11-02T07:27:49;17.73;;;3.60;;
60006;SDS011;45863;50.336;3.536;2022-11-02T07:30:15;26.57;;;4.10;;
60006;SDS011;45863;50.336;3.536;2022-11-02T07:32:40;22.60;;;3.80;;
60006;SDS011;45863;50.336;3.536;2022-11-02T07:35:06;25.65;;;3.75;;
60006;SDS011;45863;50.336;3.536;2022-11-02T07:37:32;26.55;;;4.65;;
60006;SDS011;45863;50.336;3.536;2022-11-02T07:39:57;21.50;;;4.03;;
60006;SDS011;45863;50.336;3.536;2022-11-02T07:42:23;24.95;;;4.25;;
60006;SDS011;45863;50.336;3.536;2022-11-02T07:44:48;31.60;;;5.00;;
60006;SDS011;45863;50.336;3.536;2022-11-02T07:47:14;22.80;;;3.88;;
60006;SDS011;45863;50.336;3.536;2022-11-02T07:49:39;25.95;;;3.63;;
60006;SDS011;45863;50.336;3.536;2022-11-02T07:52:04;25.00;;;4.00;;
60006;SDS011;45863;50.336;3.536;2022-11-02T07:54:29;28.23;;;4.87;;
60006;SDS011;45863;50.336;3.536;2022-11-02T07:56:55;25.05;;;3.60;;
60006;SDS011;45863;50.336;3.536;2022-11-02T07:59:20;25.67;;;3.85;;
60006;SDS011;45863;50.336;3.536;2022-11-02T08:01:46;28.10;;;5.40;;
60006;SDS011;45863;50.336;3.536;2022-11-02T08:04:11;24.47;;;3.90;;
60006;SDS011;45863;50.336;3.536;2022-11-02T08:06:36;23.58;;;4.57;;
60006;SDS011;45863;50.336;3.536;2022-11-02T08:09:01;26.43;;;3.73;;
60006;SDS011;45863;50.336;3.536;2022-11-02T08:11:27;21.85;;;4.05;;
60006;SDS011;45863;50.336;3.536;2022-11-02T08:13:52;21.80;;;4.20;;
60006;SDS011;45863;50.336;3.536;2022-11-02T08:16:17;27.45;;;5.00;;
60006;SDS011;45863;50.336;3.536;2022-11-02T08:18:42;27.90;;;4.67;;
60006;SDS011;45863;50.336;3.536;2022-11-02T08:21:08;20.07;;;4.23;;
60006;SDS011;45863;50.336;3.536;2022-11-02T08:23:33;22.27;;;4.27;;
60006;SDS011;45863;50.336;3.536;2022-11-02T08:25:58;25.80;;;5.90;;
60006;SDS011;45863;50.336;3.536;2022-11-02T08:28:25;21.35;;;4.82;;
60006;SDS011;45863;50.336;3.536;2022-11-02T08:30:51;18.08;;;4.13;;
60006;SDS011;45863;50.336;3.536;2022-11-02T08:33:16;22.05;;;4.45;;
60006;SDS011;45863;50.336;3.536;2022-11-02T08:35:42;21.52;;;4.25;;
60006;SDS011;45863;50.336;3.536;2022-11-02T08:38:08;24.92;;;5.50;;
60006;SDS011;45863;50.336;3.536;2022-11-02T08:40:34;24.85;;;4.60;;
60006;SDS011;45863;50.336;3.536;2022-11-02T08:43:00;22.25;;;4.43;;
60006;SDS011;45863;50.336;3.536;2022-11-02T08:45:26;21.70;;;4.30;;
60006;SDS011;45863;50.336;3.536;2022-11-02T08:47:52;21.95;;;4.68;;
60006;SDS011;45863;50.336;3.536;2022-11-02T08:50:18;21.73;;;4.47;;
60006;SDS011;45863;50.336;3.536;2022-11-02T08:52:43;15.25;;;3.67;;
60006;SDS011;45863;50.336;3.536;2022-11-02T08:55:08;13.57;;;4.13;;
60006;SDS011;45863;50.336;3.536;2022-11-02T09:00:29;19.65;;;4.97;;
60006;SDS011;45863;50.336;3.536;2022-11-02T09:03:28;24.17;;;5.32;;
60006;SDS011;45863;50.336;3.536;2022-11-02T09:05:48;17.27;;;3.65;;
60006;SDS011;45863;50.336;3.536;2022-11-02T09:08:15;19.30;;;3.85;;
60006;SDS011;45863;50.336;3.536;2022-11-02T09:10:43;27.13;;;4.55;;
60006;SDS011;45863;50.336;3.536;2022-11-02T09:13:10;20.42;;;3.63;;
60006;SDS011;45863;50.336;3.536;2022-11-02T09:15:35;19.80;;;4.72;;
60006;SDS011;45863;50.336;3.536;2022-11-02T09:18:01;16.88;;;3.88;;
60006;SDS011;45863;50.336;3.536;2022-11-02T09:20:26;16.73;;;3.88;;
60006;SDS011;45863;50.336;3.536;2022-11-02T09:22:52;22.48;;;4.00;;
60006;SDS011;45863;50.336;3.536;2022-11-02T09:25:17;16.17;;;3.65;;
60006;SDS011;45863;50.336;3.536;2022-11-02T09:27:43;19.63;;;3.65;;
60006;SDS011;45863;50.336;3.536;2022-11-02T09:30:08;23.27;;;4.65;;
60006;SDS011;45863;50.336;3.536;2022-11-02T09:32:34;16.50;;;4.80;;
60006;SDS011;45863;50.336;3.536;2022-11-02T09:35:00;23.35;;;4.35;;
60006;SDS011;45863;50.336;3.536;2022-11-02T09:37:25;19.73;;;4.07;;
60006;SDS011;45863;50.336;3.536;2022-11-02T09:39:50;16.45;;;3.25;;
60006;SDS011;45863;50.336;3.536;2022-11-02T09:42:23;26.27;;;5.20;;
60006;SDS011;45863;50.336;3.536;2022-11-02T09:44:55;17.35;;;3.90;;
60006;SDS011;45863;50.336;3.536;2022-11-02T09:47:22;19.75;;;4.80;;
60006;SDS011;45863;50.336;3.536;2022-11-02T09:49:48;15.70;;;3.80;;
60006;SDS011;45863;50.336;3.536;2022-11-02T09:52:30;19.13;;;4.18;;
60006;SDS011;45863;50.336;3.536;2022-11-02T09:54:57;14.82;;;3.13;;
60006;SDS011;45863;50.336;3.536;2022-11-02T09:57:27;18.92;;;3.85;;
60006;SDS011;45863;50.336;3.536;2022-11-02T09:59:53;20.20;;;4.05;;
60006;SDS011;45863;50.336;3.536;2022-11-02T10:04:48;22.77;;;4.17;;
60006;SDS011;45863;50.336;3.536;2022-11-02T10:10:12;17.05;;;3.78;;
60006;SDS011;45863;50.336;3.536;2022-11-02T10:17:35;17.52;;;3.88;;
60006;SDS011;45863;50.336;3.536;2022-11-02T10:20:06;15.98;;;3.47;;
60006;SDS011;45863;50.336;3.536;2022-11-02T10:22:38;17.92;;;4.03;;
60006;SDS011;45863;50.336;3.536;2022-11-02T10:25:06;24.23;;;3.70;;
60006;SDS011;45863;50.336;3.536;2022-11-02T10:27:38;19.30;;;3.58;;
60006;SDS011;45863;50.336;3.536;2022-11-02T10:32:29;15.13;;;3.28;;
60006;SDS011;45863;50.336;3.536;2022-11-02T10:34:55;16.05;;;3.60;;
60006;SDS011;45863;50.336;3.536;2022-11-02T10:39:52;19.63;;;3.27;;
60006;SDS011;45863;50.336;3.536;2022-11-02T10:44:50;15.55;;;3.60;;
60006;SDS011;45863;50.336;3.536;2022-11-02T10:47:21;16.65;;;3.95;;
60006;SDS011;45863;50.336;3.536;2022-11-02T10:52:36;22.95;;;3.67;;
60006;SDS011;45863;50.336;3.536;2022-11-02T10:55:05;18.92;;;3.20;;
60006;SDS011;45863;50.336;3.536;2022-11-02T11:02:42;14.68;;;3.90;;
60006;SDS011;45863;50.336;3.536;2022-11-02T11:05:11;14.57;;;3.63;;
60006;SDS011;45863;50.336;3.536;2022-11-02T11:07:37;15.25;;;3.10;;
60006;SDS011;45863;50.336;3.536;2022-11-02T11:10:12;15.52;;;3.53;;
60006;SDS011;45863;50.336;3.536;2022-11-02T11:15:05;13.60;;;3.10;;
60006;SDS011;45863;50.336;3.536;2022-11-02T11:17:34;13.70;;;3.17;;
60006;SDS011;45863;50.336;3.536;2022-11-02T11:20:00;14.48;;;3.22;;
60006;SDS011;45863;50.336;3.536;2022-11-02T11:22:31;14.18;;;3.42;;
60006;SDS011;45863;50.336;3.536;2022-11-02T11:27:48;20.00;;;3.28;;
60006;SDS011;45863;50.336;3.536;2022-11-02T11:32:54;13.32;;;3.25;;
60006;SDS011;45863;50.336;3.536;2022-11-02T11:35:20;15.00;;;2.50;;
60006;SDS011;45863;50.336;3.536;2022-11-02T11:37:53;13.85;;;3.33;;
60006;SDS011;45863;50.336;3.536;2022-11-02T11:40:19;15.90;;;3.60;;
60006;SDS011;45863;50.336;3.536;2022-11-02T11:42:45;15.88;;;3.60;;
60006;SDS011;45863;50.336;3.536;2022-11-02T11:45:16;12.98;;;3.05;;
60006;SDS011;45863;50.336;3.536;2022-11-02T11:47:41;17.10;;;3.25;;
60006;SDS011;45863;50.336;3.536;2022-11-02T11:50:14;18.42;;;3.35;;
60006;SDS011;45863;50.336;3.536;2022-11-02T11:52:39;15.90;;;2.97;;
60006;SDS011;45863;50.336;3.536;2022-11-02T11:55:27;16.02;;;3.00;;
60006;SDS011;45863;50.336;3.536;2022-11-02T11:58:38;14.10;;;2.72;;
60006;SDS011;45863;50.336;3.536;2022-11-02T12:00:38;15.70;;;3.80;;
60006;SDS011;45863;50.336;3.536;2022-11-02T12:03:04;16.67;;;3.80;;
60006;SDS011;45863;50.336;3.536;2022-11-02T12:05:31;13.52;;;3.00;;
60006;SDS011;45863;50.336;3.536;2022-11-02T12:23:28;12.00;;;3.17;;
60006;SDS011;45863;50.336;3.536;2022-11-02T12:28:48;12.52;;;2.97;;
60006;SDS011;45863;50.336;3.536;2022-11-02T12:33:45;10.50;;;2.67;;
60006;SDS011;45863;50.336;3.536;2022-11-02T12:36:24;16.85;;;2.88;;
60006;SDS011;45863;50.336;3.536;2022-11-02T12:41:28;12.15;;;2.70;;
60006;SDS011;45863;50.336;3.536;2022-11-02T12:44:09;11.52;;;2.55;;
60006;SDS011;45863;50.336;3.536;2022-11-02T12:46:58;17.75;;;3.10;;
60006;SDS011;45863;50.336;3.536;2022-11-02T12:52:02;14.10;;;3.00;;
60006;SDS011;45863;50.336;3.536;2022-11-02T12:54:38;14.18;;;3.10;;
60006;SDS011;45863;50.336;3.536;2022-11-02T12:57:04;14.65;;;2.40;;
60006;SDS011;45863;50.336;3.536;2022-11-02T12:59:31;14.52;;;2.92;;
60006;SDS011;45863;50.336;3.536;2022-11-02T13:02:00;17.27;;;3.22;;
60006;SDS011;45863;50.336;3.536;2022-11-02T13:04:28;17.75;;;3.00;;
60006;SDS011;45863;50.336;3.536;2022-11-02T13:07:07;12.38;;;2.60;;
60006;SDS011;45863;50.336;3.536;2022-11-02T13:09:37;13.98;;;3.15;;
60006;SDS011;45863;50.336;3.536;2022-11-02T13:12:04;9.70;;;2.03;;
60006;SDS011;45863;50.336;3.536;2022-11-02T13:14:53;11.88;;;2.75;;
60006;SDS011;45863;50.336;3.536;2022-11-02T13:17:21;10.30;;;2.33;;
60006;SDS011;45863;50.336;3.536;2022-11-02T13:19:54;9.97;;;2.43;;
60006;SDS011;45863;50.336;3.536;2022-11-02T13:22:22;12.63;;;2.40;;
60006;SDS011;45863;50.336;3.536;2022-11-02T13:24:50;11.43;;;2.67;;
60006;SDS011;45863;50.336;3.536;2022-11-02T13:27:29;11.57;;;3.15;;
60006;SDS011;45863;50.336;3.536;2022-11-02T13:29:56;11.65;;;2.35;;
60006;SDS011;45863;50.336;3.536;2022-11-02T13:34:48;12.47;;;2.50;;
60006;SDS011;45863;50.336;3.536;2022-11-02T13:37:16;11.90;;;2.80;;
60006;SDS011;45863;50.336;3.536;2022-11-02T13:39:45;8.95;;;2.13;;
60006;SDS011;45863;50.336;3.536;2022-11-02T13:49:48;12.55;;;3.10;;
60006;SDS011;45863;50.336;3.536;2022-11-02T13:52:15;13.00;;;2.67;;
60006;SDS011;45863;50.336;3.536;2022-11-02T13:54:44;10.45;;;2.63;;
60006;SDS011;45863;50.336;3.536;2022-11-02T13:57:21;13.77;;;3.10;;
60006;SDS011;45863;50.336;3.536;2022-11-02T13:59:50;10.63;;;2.65;;
60006;SDS011;45863;50.336;3.536;2022-11-02T14:02:16;14.10;;;2.60;;
60006;SDS011;45863;50.336;3.536;2022-11-02T14:04:42;16.05;;;2.97;;
60006;SDS011;45863;50.336;3.536;2022-11-02T14:07:16;11.65;;;2.92;;
60006;SDS011;45863;50.336;3.536;2022-11-02T14:09:43;10.90;;;2.90;;
60006;SDS011;45863;50.336;3.536;2022-11-02T14:15:35;15.98;;;3.85;;
60006;SDS011;45863;50.336;3.536;2022-11-02T14:17:49;12.15;;;2.78;;
60006;SDS011;45863;50.336;3.536;2022-11-02T14:30:41;14.23;;;2.63;;
60006;SDS011;45863;50.336;3.536;2022-11-02T14:33:11;15.85;;;2.72;;
60006;SDS011;45863;50.336;3.536;2022-11-02T14:35:41;11.20;;;2.83;;
60006;SDS011;45863;50.336;3.536;2022-11-02T14:38:14;16.33;;;2.83;;
60006;SDS011;45863;50.336;3.536;2022-11-02T14:45:46;15.00;;;3.55;;
60006;SDS011;45863;50.336;3.536;2022-11-02T14:48:15;30.63;;;3.78;;
60006;SDS011;45863;50.336;3.536;2022-11-02T14:50:41;16.23;;;2.88;;
60006;SDS011;45863;50.336;3.536;2022-11-02T14:53:07;15.13;;;2.65;;
60006;SDS011;45863;50.336;3.536;2022-11-02T14:55:34;18.05;;;3.88;;
60006;SDS011;45863;50.336;3.536;2022-11-02T14:58:13;16.23;;;3.15;;
60006;SDS011;45863;50.336;3.536;2022-11-02T15:05:37;12.98;;;2.45;;
60006;SDS011;45863;50.336;3.536;2022-11-02T15:08:07;15.95;;;2.80;;
60006;SDS011;45863;50.336;3.536;2022-11-02T15:10:50;17.95;;;3.55;;
60006;SDS011;45863;50.336;3.536;2022-11-02T15:15:44;15.90;;;3.20;;
60006;SDS011;45863;50.336;3.536;2022-11-02T15:18:19;16.67;;;2.65;;
60006;SDS011;45863;50.336;3.536;2022-11-02T15:20:46;17.10;;;2.75;;
60006;SDS011;45863;50.336;3.536;2022-11-02T15:23:31;18.60;;;2.85;;
60006;SDS011;45863;50.336;3.536;2022-11-02T15:26:00;16.52;;;3.38;;
60006;SDS011;45863;50.336;3.536;2022-11-02T15:28:29;13.25;;;3.22;;
60006;SDS011;45863;50.336;3.536;2022-11-02T15:30:58;14.80;;;2.72;;
60006;SDS011;45863;50.336;3.536;2022-11-02T15:35:55;15.40;;;2.78;;
60006;SDS011;45863;50.336;3.536;2022-11-02T15:38:25;16.58;;;2.70;;
60006;SDS011;45863;50.336;3.536;2022-11-02T15:43:38;16.20;;;2.47;;
60006;SDS011;45863;50.336;3.536;2022-11-02T15:46:18;16.92;;;3.08;;
60006;SDS011;45863;50.336;3.536;2022-11-02T15:51:39;12.80;;;3.20;;
60006;SDS011;45863;50.336;3.536;2022-11-02T15:54:12;19.70;;;3.10;;
60006;SDS011;45863;50.336;3.536;2022-11-02T15:56:48;18.48;;;3.15;;
60006;SDS011;45863;50.336;3.536;2022-11-02T16:02:24;14.05;;;2.72;;
60006;SDS011;45863;50.336;3.536;2022-11-02T16:07:06;18.25;;;2.85;;
60006;SDS011;45863;50.336;3.536;2022-11-02T16:09:32;15.88;;;3.60;;
60006;SDS011;45863;50.336;3.536;2022-11-02T16:14:32;19.48;;;3.10;;
60006;SDS011;45863;50.336;3.536;2022-11-02T16:16:57;15.73;;;3.03;;
60006;SDS011;45863;50.336;3.536;2022-11-02T16:19:22;18.73;;;3.55;;
60006;SDS011;45863;50.336;3.536;2022-11-02T16:21:48;14.32;;;2.90;;
60006;SDS011;45863;50.336;3.536;2022-11-02T16:24:13;13.38;;;3.38;;
60006;SDS011;45863;50.336;3.536;2022-11-02T16:26:40;16.77;;;3.13;;
60006;SDS011;45863;50.336;3.536;2022-11-02T16:29:06;17.38;;;2.88;;
60006;SDS011;45863;50.336;3.536;2022-11-02T16:31:32;13.52;;;2.78;;
60006;SDS011;45863;50.336;3.536;2022-11-02T16:33:58;17.00;;;3.90;;
60006;SDS011;45863;50.336;3.536;2022-11-02T16:36:25;25.75;;;3.80;;
60006;SDS011;45863;50.336;3.536;2022-11-02T16:38:58;19.08;;;3.35;;
60006;SDS011;45863;50.336;3.536;2022-11-02T16:41:25;15.02;;;3.22;;
60006;SDS011;45863;50.336;3.536;2022-11-02T16:43:51;17.02;;;3.53;;
60006;SDS011;45863;50.336;3.536;2022-11-02T16:46:16;21.67;;;2.90;;
60006;SDS011;45863;50.336;3.536;2022-11-02T16:49:11;16.48;;;3.17;;
60006;SDS011;45863;50.336;3.536;2022-11-02T16:51:36;21.27;;;4.50;;
60006;SDS011;45863;50.336;3.536;2022-11-02T16:54:15;23.05;;;3.65;;
60006;SDS011;45863;50.336;3.536;2022-11-02T16:56:41;17.90;;;3.50;;
60006;SDS011;45863;50.336;3.536;2022-11-02T16:59:11;19.77;;;4.18;;
60006;SDS011;45863;50.336;3.536;2022-11-02T17:01:38;22.95;;;4.43;;
60006;SDS011;45863;50.336;3.536;2022-11-02T17:06:38;23.98;;;4.57;;